Time,TemperatureF,DewpointF,PressureIn,WindDirection,WindDirectionDegrees,WindSpeedMPH,WindSpeedGustMPH,Humidity,HourlyPrecipIn,Conditions,Clouds,dailyrainin,SoftwareType,DateUTC
2013-01-07 00:00:00,34.2,31.0,30.08,ENE,68,0.0,0.0,88,0.00,,---,0.00,VWS V14.01,2013-01-07 05:00:00,
2013-01-07 00:30:00,34.2,31.0,30.08,ENE,68,0.0,0.0,88,0.00,,---,0.00,VWS V14.01,2013-01-07 05:30:00,
2013-01-07 01:00:00,34.2,31.0,30.09,ENE,68,0.0,0.0,88,0.00,,---,0.00,VWS V14.01,2013-01-07 06:00:00,
2013-01-07 01:30:00,34.2,31.0,30.10,ENE,68,0.0,0.0,88,0.00,,---,0.00,VWS V14.01,2013-01-07 06:30:00,
2013-01-07 02:00:00,34.2,31.0,30.12,ENE,68,0.0,0.0,88,0.00,,---,0.00,VWS V14.01,2013-01-07 07:00:00,
2013-01-07 02:30:00,34.2,31.0,30.13,ENE,68,0.0,0.0,88,0.00,,---,0.00,VWS V14.01,2013-01-07 07:30:00,
2013-01-07 03:00:00,34.2,31.0,30.14,ENE,68,0.0,0.0,88,0.00,,---,0.00,VWS V14.01,2013-01-07 08:00:00,
2013-01-07 03:30:00,34.2,31.0,30.14,ENE,68,0.0,0.0,88,0.00,,---,0.00,VWS V14.01,2013-01-07 08:30:00,
2013-01-07 04:00:00,34.2,31.0,30.15,ENE,68,0.0,0.0,88,0.00,,---,0.00,VWS V14.01,2013-01-07 09:00:00,
2013-01-07 04:30:00,34.2,31.0,30.16,ENE,68,0.0,0.0,88,0.00,,---,0.00,VWS V14.01,2013-01-07 09:30:00,
2013-01-07 05:00:00,34.2,31.0,30.17,ENE,68,0.0,0.0,88,0.00,,---,0.00,VWS V14.01,2013-01-07 10:00:00,
2013-01-07 05:30:00,34.2,31.0,30.18,ENE,68,0.0,0.0,88,0.00,,---,0.00,VWS V14.01,2013-01-07 10:30:00,
2013-01-07 06:00:00,34.2,31.0,30.20,ENE,68,0.0,0.0,88,0.00,,---,0.00,VWS V14.01,2013-01-07 11:00:00,
2013-01-07 06:30:00,34.2,31.0,30.23,ENE,68,0.0,0.0,88,0.00,,---,0.00,VWS V14.01,2013-01-07 11:30:00,
2013-01-07 07:00:00,34.2,31.0,30.24,ENE,68,0.0,0.0,88,0.00,,---,0.00,VWS V14.01,2013-01-07 12:00:00,
2013-01-07 07:30:00,34.2,31.0,30.27,ENE,68,0.0,0.0,88,0.00,,---,0.00,VWS V14.01,2013-01-07 12:30:00,
2013-01-07 08:00:00,34.2,31.0,30.28,ENE,68,0.0,0.0,88,0.00,,---,0.00,VWS V14.01,2013-01-07 13:00:00,
2013-01-07 08:30:00,32.7,25.0,30.31,ESE,112,0.0,3.0,73,0.00,,---,0.00,VWS V14.01,2013-01-07 13:30:00,
2013-01-07 09:00:00,34.8,26.4,30.36,ENE,68,2.0,7.0,71,0.00,,---,0.00,VWS V14.01,2013-01-07 14:00:00,
2013-01-07 09:30:00,36.7,26.8,30.39,NE,45,2.0,8.0,67,0.00,,---,0.00,VWS V14.01,2013-01-07 14:30:00,
2013-01-07 10:00:00,36.7,26.8,30.42,ENE,68,3.0,10.0,67,0.00,,---,0.00,VWS V14.01,2013-01-07 15:00:00,
2013-01-07 10:30:00,37.3,26.3,30.43,NE,45,2.0,9.0,64,0.00,,---,0.00,VWS V14.01,2013-01-07 15:30:00,
2013-01-07 11:00:00,40.3,27.9,30.43,West,270,1.0,6.0,61,0.00,,---,0.00,VWS V14.01,2013-01-07 16:00:00,
2013-01-07 11:30:00,41.2,27.6,30.41,SW,225,1.0,4.0,58,0.00,,---,0.00,VWS V14.01,2013-01-07 16:30:00,
2013-01-07 12:00:00,39.1,28.3,30.40,East,90,3.0,8.0,65,0.00,,---,0.00,VWS V14.01,2013-01-07 17:00:00,
2013-01-07 12:30:00,39.3,28.5,30.39,ENE,68,3.0,9.0,65,0.00,,---,0.00,VWS V14.01,2013-01-07 17:30:00,
2013-01-07 13:00:00,40.6,28.6,30.39,ESE,112,2.0,7.0,62,0.00,,---,0.00,VWS V14.01,2013-01-07 18:00:00,
2013-01-07 13:30:00,41.9,29.0,30.38,ESE,112,1.0,5.0,60,0.00,,---,0.00,VWS V14.01,2013-01-07 18:30:00,
2013-01-07 14:00:00,43.4,29.2,30.37,SSE,158,1.0,4.0,57,0.00,,---,0.00,VWS V14.01,2013-01-07 19:00:00,
2013-01-07 14:30:00,41.7,28.9,30.36,ENE,68,3.0,8.0,60,0.00,,---,0.00,VWS V14.01,2013-01-07 19:30:00,
2013-01-07 15:00:00,41.8,29.4,30.37,ENE,68,2.0,7.0,61,0.00,,---,0.00,VWS V14.01,2013-01-07 20:00:00,
2013-01-07 15:30:00,40.6,28.2,30.37,ENE,68,3.0,7.0,61,0.00,,---,0.00,VWS V14.01,2013-01-07 20:30:00,
2013-01-07 16:00:00,40.1,28.1,30.37,ENE,68,2.0,6.0,62,0.00,,---,0.00,VWS V14.01,2013-01-07 21:00:00,
2013-01-07 16:30:00,39.2,28.1,30.37,East,90,2.0,5.0,64,0.00,,---,0.00,VWS V14.01,2013-01-07 21:30:00,
2013-01-07 17:00:00,37.6,27.6,30.38,East,90,1.0,3.0,67,0.00,,---,0.00,VWS V14.01,2013-01-07 22:00:00,
2013-01-07 17:30:00,33.5,26.4,30.39,NE,45,0.0,2.0,75,0.00,,---,0.00,VWS V14.01,2013-01-07 22:30:00,
2013-01-07 18:00:00,31.1,25.4,30.39,ENE,68,0.0,2.0,79,0.00,,---,0.00,VWS V14.01,2013-01-07 23:00:00,
2013-01-07 18:30:00,29.2,24.7,30.40,ENE,68,0.0,0.0,83,0.00,,---,0.00,VWS V14.01,2013-01-07 23:30:00,
2013-01-07 19:00:00,28.0,24.1,30.40,ENE,68,0.0,0.0,85,0.00,,---,0.00,VWS V14.01,2013-01-08 00:00:00,
2013-01-07 19:30:00,27.4,23.8,30.40,ENE,68,0.0,0.0,86,0.00,,---,0.00,VWS V14.01,2013-01-08 00:30:00,
2013-01-07 20:00:00,26.9,23.6,30.40,ENE,68,0.0,0.0,87,0.00,,---,0.00,VWS V14.01,2013-01-08 01:00:00,
2013-01-07 20:30:00,26.1,23.0,30.40,ENE,68,0.0,0.0,88,0.00,,---,0.00,VWS V14.01,2013-01-08 01:30:00,
2013-01-07 21:00:00,25.5,22.7,30.40,ENE,68,0.0,0.0,89,0.00,,---,0.00,VWS V14.01,2013-01-08 02:00:00,
2013-01-07 21:30:00,25.0,22.5,30.39,ENE,68,0.0,0.0,90,0.00,,---,0.00,VWS V14.01,2013-01-08 02:30:00,
2013-01-07 22:00:00,25.0,22.5,30.39,ENE,68,0.0,0.0,90,0.00,,---,0.00,VWS V14.01,2013-01-08 03:00:00,
2013-01-07 22:30:00,24.7,22.5,30.39,ENE,68,0.0,0.0,91,0.00,,---,0.00,VWS V14.01,2013-01-08 03:30:00,
2013-01-07 23:00:00,24.5,22.2,30.38,SW,225,0.0,1.0,91,0.00,,---,0.00,VWS V14.01,2013-01-08 04:00:00,
2013-01-07 23:30:00,23.6,21.6,30.38,SW,225,0.0,0.0,92,0.00,,---,0.00,VWS V14.01,2013-01-08 04:30:00,